N5448F / N5448F 7700 Squawk Report (21st of February, 2019)

Time Lat Lon Altitude Heading Speed Vertical Rate
2019-02-21 02:08:26 GMT 39.902435 -105.103989 5,800 305 71 0
2019-02-21 02:08:21 GMT 39.901657 -105.102440 5,800 304 79 -192
2019-02-21 02:08:10 GMT 39.899223 -105.097839 5,900 305 92 -640
2019-02-21 02:08:04 GMT 39.897968 -105.095337 5,900 303 96 -704
2019-02-21 02:08:00 GMT 39.896622 -105.092529 6,000 303 99 -896
2019-02-21 02:07:55 GMT 39.895454 -105.090149 6,100 303 102 -768
2019-02-21 02:07:51 GMT 39.894745 -105.088646 6,100 303 105 -704
2019-02-21 02:07:48 GMT 39.893963 -105.087097 6,200 304 107 -960
2019-02-21 02:07:43 GMT 39.892521 -105.084229 6,200 304 109 -640
2019-02-21 02:07:38 GMT 39.891033 -105.081360 6,300 305 108 -192
2019-02-21 02:07:33 GMT 39.889542 -105.078674 6,300 307 106 896
2019-02-21 02:07:28 GMT 39.887833 -105.075630 6,200 306 109 1088
2019-02-21 02:07:23 GMT 39.886322 -105.072945 6,100 306 110 -128
2019-02-21 02:07:17 GMT 39.884701 -105.069885 6,100 305 109 192
2019-02-21 02:07:12 GMT 39.883209 -105.067032 6,100 305 106 320
2019-02-21 02:07:07 GMT 39.881813 -105.064392 6,100 305 104 320
2019-02-21 02:07:01 GMT 39.880325 -105.061661 6,000 307 100 320
2019-02-21 02:06:58 GMT 39.879501 -105.060226 6,000 307 98 320
2019-02-21 02:06:55 GMT 39.878834 -105.059082 6,000 308 97 448
2019-02-21 02:06:48 GMT 39.876507 -105.055359 6,000 312 86 -384
2019-02-21 02:06:45 GMT 39.875996 -105.054626 6,000 314 80 -768
2019-02-21 02:06:40 GMT 39.874508 -105.052673 6,100 318 80 -832
2019-02-21 02:06:35 GMT 39.873062 -105.051025 6,100 321 80 -704
2019-02-21 02:06:29 GMT 39.871490 -105.049416 6,200 324 81 -768
2019-02-21 02:06:26 GMT 39.870667 -105.048645 6,200 328 81 -768
2019-02-21 02:06:23 GMT 39.869804 -105.047974 6,300 329 82 -768
2019-02-21 02:06:16 GMT 39.867477 -105.045898 6,400 322 82 -768
2019-02-21 02:06:13 GMT 39.866547 -105.044937 6,400 322 83 -832
2019-02-21 02:06:07 GMT 39.864868 -105.043152 6,500 322 82 -896
2019-02-21 02:06:03 GMT 39.863434 -105.041656 6,600 322 81 -896
2019-02-21 02:05:55 GMT 39.861004 -105.039368 6,700 324 78 -832
2019-02-21 02:05:51 GMT 39.860123 -105.038452 6,700 321 80 -640
2019-02-21 02:05:45 GMT 39.858215 -105.036400 6,800 320 80 -640
2019-02-21 02:05:41 GMT 39.857162 -105.035149 6,800 319 82 -704
2019-02-21 02:05:34 GMT 39.854069 -105.031738 6,900 321 84 -576
2019-02-21 02:05:31 GMT 39.854069 -105.031738 7,000 321 85 -704
2019-02-21 02:05:23 GMT 39.850624 -105.028320 7,100 324 86 -832
2019-02-21 02:05:19 GMT 39.850624 -105.028320 7,100 325 87 -768
2019-02-21 02:05:15 GMT 39.848808 -105.026672 7,200 327 87 -896
2019-02-21 02:05:12 GMT 39.847645 -105.025696 7,200 328 86 -832
2019-02-21 02:05:09 GMT 39.847088 -105.025208 7,300 329 87 -896
2019-02-21 02:05:04 GMT 39.843967 -105.022888 7,400 334 88 -768
2019-02-21 02:04:59 GMT 39.843224 -105.022400 7,400 334 88 -768
2019-02-21 02:04:51 GMT 39.839951 -105.020882 7,400 342 90 -448
2019-02-21 02:04:47 GMT 39.838898 -105.020523 7,500 348 100 -256
2019-02-21 02:04:42 GMT 39.836563 -105.019897 7,500 349 107 -128
2019-02-21 02:04:38 GMT 39.833866 -105.019165 7,500 350 111 -128
2019-02-21 02:04:32 GMT 39.828552 -105.018074 7,600 353 109 -192
2019-02-21 02:04:27 GMT 39.828552 -105.018074 7,600 354 108 -128
2019-02-21 02:04:19 GMT 39.824615 -105.017654 7,600 358 109 256
2019-02-21 02:04:15 GMT 39.823017 -105.017578 7,500 0 110 128
2019-02-21 02:04:11 GMT 39.819168 -105.017532 7,500 0 111 192
2019-02-21 02:04:08 GMT 39.819168 -105.017532 7,500 358 112 64
2019-02-21 02:04:04 GMT 39.817574 -105.017456 7,600 356 112 -256
2019-02-21 02:04:01 GMT 39.815197 -105.017212 7,600 357 111 -192
2019-02-21 02:03:58 GMT 39.813904 -105.017113 7,600 358 111 0
2019-02-21 02:03:55 GMT 39.812172 -105.017029 7,600 0 112 192
2019-02-21 02:03:47 GMT 39.808495 -105.017151 7,600 1 114 -320
2019-02-21 02:03:42 GMT 39.805515 -105.017212 7,600 1 112 -64
2019-02-21 02:03:37 GMT 39.802673 -105.017456 7,600 5 111 0
2019-02-21 02:03:33 GMT 39.801178 -105.017654 7,600 4 112 -256
2019-02-21 02:03:26 GMT 39.797462 -105.017883 7,600 2 112 0
2019-02-21 02:03:22 GMT 39.795227 -105.017944 7,600 1 112 -64
2019-02-21 02:03:16 GMT 39.792061 -105.017944 7,600 358 112 -128
2019-02-21 02:03:11 GMT 39.789871 -105.017830 7,600 359 112 -192
2019-02-21 02:03:05 GMT 39.786568 -105.017822 7,600 1 110 -128
2019-02-21 02:03:01 GMT 39.784424 -105.017830 7,600 359 109 -64
2019-02-21 02:02:58 GMT 39.782658 -105.017822 7,600 358 109 -64
2019-02-21 02:02:55 GMT 39.781261 -105.017761 7,600 358 109 0
2019-02-21 02:02:50 GMT 39.778702 -105.017532 7,600 356 109 0
2019-02-21 02:02:44 GMT 39.776001 -105.017273 7,600 356 109 0
2019-02-21 02:02:40 GMT 39.773987 -105.017059 7,700 356 109 -64
2019-02-21 02:02:37 GMT 39.772045 -105.016846 7,700 355 108 -128
2019-02-21 02:02:34 GMT 39.770508 -105.016640 7,700 354 107 -192
2019-02-21 02:02:30 GMT 39.768585 -105.016281 7,700 352 106 -128
2019-02-21 02:02:27 GMT 39.767853 -105.016098 7,700 351 105 -128
2019-02-21 02:02:23 GMT 39.765156 -105.015503 7,700 351 104 64
2019-02-21 02:02:20 GMT 39.763962 -105.015266 7,700 351 105 320
2019-02-21 02:02:16 GMT 39.761848 -105.014832 7,600 352 107 320
2019-02-21 02:02:11 GMT 39.760174 -105.014526 7,600 352 108 256
2019-02-21 02:02:07 GMT 39.756451 -105.013672 7,600 347 111 -192
2019-02-21 02:02:01 GMT 39.754959 -105.013245 7,600 347 111 -192
2019-02-21 02:01:58 GMT 39.753563 -105.012695 7,600 341 109 -128
2019-02-21 02:01:55 GMT 39.751373 -105.011597 7,600 336 110 256
2019-02-21 02:01:51 GMT 39.749699 -105.010620 7,600 333 111 192
2019-02-21 02:01:48 GMT 39.748211 -105.009460 7,600 329 112 0
2019-02-21 02:01:41 GMT 39.745602 -105.007263 7,600 325 113 -128
2019-02-21 02:01:38 GMT 39.744324 -105.006073 7,700 325 111 -192
2019-02-21 02:01:31 GMT 39.741074 -105.002968 7,700 324 110 -128
2019-02-21 02:01:26 GMT 39.739517 -105.001411 7,700 324 111 -64
2019-02-21 02:01:23 GMT 39.738106 -105.000000 7,700 321 112 0
2019-02-21 02:01:20 GMT 39.737038 -104.998779 7,700 321 112 0
2019-02-21 02:01:17 GMT 39.735874 -104.997498 7,700 319 112 -128
2019-02-21 02:01:11 GMT 39.733452 -104.994690 7,700 317 111 -320
2019-02-21 02:01:08 GMT 39.732101 -104.992996 7,700 316 109 -192
2019-02-21 02:01:04 GMT 39.730728 -104.991264 7,700 313 108 -192
2019-02-21 02:00:59 GMT 39.729263 -104.989136 7,700 309 108 -192
2019-02-21 02:00:56 GMT 39.728191 -104.987366 7,700 303 107 0
2019-02-21 02:00:53 GMT 39.727295 -104.985291 7,700 298 107 -128
2019-02-21 02:00:50 GMT 39.726791 -104.984154 7,700 298 107 -128
2019-02-21 02:00:46 GMT 39.725967 -104.981949 7,700 296 106 0
2019-02-21 02:00:40 GMT 39.724606 -104.978027 7,700 293 106 -64
2019-02-21 02:00:36 GMT 39.723770 -104.975616 7,700 296 106 0
2019-02-21 02:00:31 GMT 39.722977 -104.973633 7,700 309 106 192
2019-02-21 02:00:28 GMT 39.720657 -104.969948 7,700 311 107 -64
2019-02-21 02:00:17 GMT 39.718464 -104.966431 7,700 308 107 0
2019-02-21 02:00:13 GMT 39.717407 -104.964516 7,700 304 107 128
2019-02-21 02:00:07 GMT 39.715530 -104.960449 7,700 299 107 -128
2019-02-21 02:00:04 GMT 39.714844 -104.958839 7,700 298 106 -192
2019-02-21 01:59:59 GMT 39.713150 -104.954422 7,700 296 105 64
2019-02-21 01:59:53 GMT 39.712505 -104.952698 7,700 295 105 256
2019-02-21 01:59:47 GMT 39.711433 -104.949524 7,700 294 107 128
2019-02-21 01:59:44 GMT 39.709854 -104.945168 7,700 296 106 -192
2019-02-21 01:59:40 GMT 39.709854 -104.945168 7,700 301 104 -64
2019-02-21 01:59:37 GMT 39.709198 -104.943604 7,700 302 104 0
2019-02-21 01:59:34 GMT 39.708363 -104.941956 7,700 306 104 0
2019-02-21 01:59:31 GMT 39.707657 -104.940628 7,700 307 103 0
2019-02-21 01:59:26 GMT 39.706329 -104.938423 7,700 309 103 64
2019-02-21 01:59:23 GMT 39.705185 -104.936691 7,700 313 103 0
2019-02-21 01:59:20 GMT 39.704033 -104.935181 7,700 317 102 64
2019-02-21 01:59:16 GMT 39.702866 -104.933777 7,700 317 102 128
2019-02-21 01:59:12 GMT 39.701431 -104.931854 7,700 314 103 256
2019-02-21 01:59:09 GMT 39.700516 -104.930481 7,700 309 104 192
2019-02-21 01:59:06 GMT 39.699554 -104.928810 7,700 304 105 192
2019-02-21 01:59:03 GMT 39.698631 -104.926941 7,700 302 106 128
2019-02-21 01:58:59 GMT 39.697769 -104.924988 7,700 300 106 0
2019-02-21 01:58:55 GMT 39.696957 -104.923096 7,700 295 104 64
2019-02-21 01:58:52 GMT 39.696350 -104.921463 7,700 295 104 0
2019-02-21 01:58:48 GMT 39.695389 -104.918655 7,700 294 104 0
2019-02-21 01:58:45 GMT 39.694885 -104.917107 7,700 294 104 128
2019-02-21 01:58:40 GMT 39.694016 -104.914421 7,700 295 105 192
2019-02-21 01:58:37 GMT 39.693325 -104.912537 7,600 298 106 192
2019-02-21 01:58:33 GMT 39.692577 -104.910889 7,600 304 106 128
2019-02-21 01:58:30 GMT 39.691315 -104.908745 7,600 309 106 -64
2019-02-21 01:58:27 GMT 39.690533 -104.907471 7,600 310 105 64
2019-02-21 01:58:24 GMT 39.689301 -104.905464 7,600 311 105 64
2019-02-21 01:58:21 GMT 39.688705 -104.904564 7,600 311 105 0
2019-02-21 01:58:16 GMT 39.686920 -104.901878 7,600 311 105 0
2019-02-21 01:58:12 GMT 39.685822 -104.900146 7,600 310 105 0
2019-02-21 01:58:09 GMT 39.684757 -104.898438 7,600 309 105 64
2019-02-21 01:58:02 GMT 39.683075 -104.895729 7,600 308 104 128
2019-02-21 01:57:59 GMT 39.682205 -104.894234 7,600 309 105 256
2019-02-21 01:57:56 GMT 39.680801 -104.891785 7,600 307 108 192
2019-02-21 01:57:52 GMT 39.679825 -104.890137 7,600 307 108 -64
2019-02-21 01:57:47 GMT 39.678314 -104.887428 7,600 307 107 -192
2019-02-21 01:57:44 GMT 39.677311 -104.885681 7,600 307 106 0
2019-02-21 01:57:39 GMT 39.676102 -104.883545 7,600 307 106 64
2019-02-21 01:57:32 GMT 39.673096 -104.878235 7,600 306 106 -128
2019-02-21 01:57:25 GMT 39.671906 -104.876144 7,600 307 105 64
2019-02-21 01:57:21 GMT 39.670513 -104.873779 7,600 307 105 128
2019-02-21 01:57:18 GMT 39.670002 -104.872803 7,600 307 105 64
2019-02-21 01:57:14 GMT 39.668327 -104.869873 7,600 305 104 -128
2019-02-21 01:57:10 GMT 39.667557 -104.868446 7,600 304 103 -256
2019-02-21 01:57:07 GMT 39.667053 -104.867432 7,600 304 103 -128
2019-02-21 01:57:01 GMT 39.665115 -104.863770 7,600 304 101 64
2019-02-21 01:56:58 GMT 39.664368 -104.862366 7,600 303 102 128
2019-02-21 01:56:52 GMT 39.662273 -104.858154 7,600 303 102 128
2019-02-21 01:56:49 GMT 39.661194 -104.855965 7,600 304 102 192
2019-02-21 01:56:46 GMT 39.661194 -104.855965 7,600 304 102 192
2019-02-21 01:56:42 GMT 39.660179 -104.853943 7,600 304 102 128
2019-02-21 01:56:39 GMT 39.659409 -104.852440 7,600 305 102 128
2019-02-21 01:56:35 GMT 39.658642 -104.851013 7,600 305 103 128
2019-02-21 01:56:29 GMT 39.656780 -104.847595 7,600 306 104 64
2019-02-21 01:56:26 GMT 39.655746 -104.845695 7,600 306 104 -64
2019-02-21 01:56:18 GMT 39.652870 -104.840149 7,600 305 101 -128
2019-02-21 01:56:09 GMT 39.651428 -104.837341 7,600 305 101 -128
2019-02-21 01:56:06 GMT 39.650620 -104.835899 7,600 305 101 -192
2019-02-21 01:56:01 GMT 39.649292 -104.833336 7,600 304 102 -64
2019-02-21 01:55:57 GMT 39.648121 -104.831055 7,600 303 102 0
2019-02-21 01:55:48 GMT 39.645950 -104.826347 7,700 300 103 -320
2019-02-21 01:55:45 GMT 39.645355 -104.824974 7,700 300 102 -320
2019-02-21 01:55:40 GMT 39.644119 -104.822205 7,700 301 101 -192
2019-02-21 01:55:36 GMT 39.643093 -104.820129 7,700 303 101 -64
2019-02-21 01:55:29 GMT 39.641647 -104.816971 7,700 302 101 -64
2019-02-21 01:55:24 GMT 39.640320 -104.814346 7,700 302 101 -64
2019-02-21 01:55:16 GMT 39.638077 -104.810287 7,700 319 102 -64
2019-02-21 01:55:09 GMT 39.635040 -104.807617 7,700 334 102 -128
2019-02-21 01:55:03 GMT 39.632805 -104.806519 7,700 345 101 -128
2019-02-21 01:54:59 GMT 39.630154 -104.805786 7,800 351 101 64
2019-02-21 01:54:56 GMT 39.629128 -104.805542 7,700 350 100 64
2019-02-21 01:54:53 GMT 39.628010 -104.805298 7,700 349 101 64
2019-02-21 01:54:48 GMT 39.625591 -104.804626 7,700 350 101 192
2019-02-21 01:54:43 GMT 39.622971 -104.804016 7,700 351 102 192
2019-02-21 01:54:37 GMT 39.620052 -104.803589 7,700 358 103 0
2019-02-21 01:54:32 GMT 39.617889 -104.803482 7,700 358 103 -64
2019-02-21 01:54:26 GMT 39.615440 -104.803406 7,700 358 102 256
2019-02-21 01:54:21 GMT 39.612900 -104.803185 7,700 357 102 576
2019-02-21 01:54:16 GMT 39.610741 -104.802979 7,600 357 102 320
2019-02-21 01:54:13 GMT 39.609238 -104.802879 7,600 357 102 256
2019-02-21 01:54:10 GMT 39.607224 -104.802704 7,600 358 100 320
2019-02-21 01:54:06 GMT 39.605854 -104.802612 7,600 358 99 384
2019-02-21 01:54:03 GMT 39.604595 -104.802612 7,500 2 98 320
2019-02-21 01:54:00 GMT 39.602921 -104.802673 7,500 2 98 320
2019-02-21 01:53:56 GMT 39.601151 -104.803040 7,500 11 97 448
2019-02-21 01:53:52 GMT 39.599808 -104.803421 7,500 12 97 384
2019-02-21 01:53:49 GMT 39.598267 -104.803894 7,500 12 95 448
2019-02-21 01:53:46 GMT 39.596512 -104.804375 7,400 12 95 576
2019-02-21 01:53:43 GMT 39.595322 -104.804733 7,400 12 95 640
2019-02-21 01:53:38 GMT 39.593399 -104.805328 7,300 12 96 640
2019-02-21 01:53:32 GMT 39.590862 -104.805969 7,300 10 97 640
2019-02-21 01:53:28 GMT 39.588814 -104.806458 7,200 9 98 640
2019-02-21 01:53:25 GMT 39.587509 -104.806702 7,200 8 98 576
2019-02-21 01:53:21 GMT 39.586163 -104.807007 7,200 8 98 576
2019-02-21 01:53:17 GMT 39.584061 -104.807358 7,100 7 98 640
2019-02-21 01:53:14 GMT 39.582764 -104.807556 7,100 6 98 640
2019-02-21 01:53:09 GMT 39.580715 -104.807861 7,100 6 99 512
2019-02-21 01:53:06 GMT 39.579071 -104.808136 7,000 6 99 640
2019-02-21 01:53:01 GMT 39.576782 -104.808434 7,000 6 100 640
2019-02-21 01:52:58 GMT 39.575821 -104.808617 7,000 5 100 640
2019-02-21 01:52:55 GMT 39.573730 -104.808838 6,900 5 101 576
2019-02-21 01:52:51 GMT 39.571930 -104.809036 6,900 4 99 256
2019-02-21 01:52:43 GMT 39.567352 -104.810303 6,800 24 92 576
2019-02-21 01:52:30 GMT 39.564095 -104.814148 6,700 64 86 640
2019-02-21 01:52:19 GMT 39.563095 -104.819000 6,600 86 80 384
2019-02-21 01:52:11 GMT 39.563442 -104.822632 6,500 109 79 832
2019-02-21 01:52:04 GMT 39.564888 -104.825928 6,400 118 80 704
2019-02-21 01:52:01 GMT 39.565166 -104.826477 6,400 124 79 384
2019-02-21 01:51:57 GMT 39.566025 -104.828079 6,400 122 78 576

Making use of Plane Finder data

You are free to use the raw flight data, aircraft information and images provided in this report for your own purposes provided the data is correctly attributed to Plane Finder. We ask that you please credit Plane Finder and link to planefinder.net in close proximity to the content.

Optionally one of the following logos (no smaller then 150x24px) can be used and must link to planefinder.net

Embedding the Plane Finder map

You are welcome to embed the Plane Finder playback map on your website to offer visitors a more interactive experience. We suggest using the following HTML code:

<iframe src="//planefinder.net/data/report/N5448F-N5448F-7700-squawk-2019-02-21/map" width="800" height="600" seamless="seamless"></iframe>

Where our data comes from

Plane Finder has a global network of data feeds and antenna radars that receive data broadcast directly from aircraft. The primary technologies used are ADS-B and MLAT. We also show feeds from the FAA and a FLARM glider feed.

Click here to find out more about the Plane Finder network.

How we collect our data